SCBA/BBA METAR and TAF weather

Enter ICAO airport designator
Station Type Date Time Source
SCBA METAR 2019/08/22 05:00 UTC NOAA

SCBA 220500Z AUTO 32015KT 9999 SCT040 06/02 Q1020


Station Type Date Time Source
SCBA Decoded METAR 2019/08/22 05:00 UTC NOAA

Station name not available
Aug 22, 2019 - 01:00 AM EDT / 2019.08.22 0500 UTC
Wind: from the NW (320 degrees) at 17 MPH (15 KT):0
Visibility: greater than 7 mile(s):0
Sky conditions: partly cloudy
Temperature: 42 F (6 C)
Dew Point: 35 F (2 C)
Relative Humidity: 75%
Pressure (altimeter): 30.12 in. Hg (1020 hPa)
ob: SCBA 220500Z AUTO 32015KT 9999 SCT040 06/02 Q1020
cycle: 5

Station Type Date Time Source
SCBA TAF 2019/08/22 06:03 UTC NOAA

TAF SCBA 220459Z 2206/2306 31015KT 9999 BKN040 TN02/2212Z TX08/2220Z
BECMG 2216/2218 CAVOK
BECMG 2220/2222 VRB02KT
BECMG 2222/2224 17005KT

Example: see airport list